createdAt,value
2022-11-13T00:01:59.116Z,21.85
2022-11-13T00:08:19.539Z,18.50
2022-11-13T00:14:40.048Z,22.02
2022-11-13T00:21:12.886Z,21.02
2022-11-13T00:27:33.425Z,25.42
2022-11-13T00:40:34.399Z,19.63
2022-11-13T00:46:54.887Z,18.17
2022-11-13T00:53:18.258Z,18.98
2022-11-13T00:59:38.577Z,17.63
2022-11-13T01:05:59.042Z,17.38
2022-11-13T01:12:19.551Z,23.63
2022-11-13T01:18:43.911Z,22.33
2022-11-13T01:25:04.756Z,25.63
2022-11-13T01:31:27.783Z,24.90
2022-11-13T01:37:48.039Z,27.63
2022-11-13T01:44:13.520Z,21.02
2022-11-13T01:50:34.303Z,23.45
2022-11-13T01:56:55.230Z,17.63
2022-11-13T02:03:15.523Z,26.35
2022-11-13T02:09:48.599Z,21.48
2022-11-13T02:16:10.558Z,24.45
2022-11-13T02:22:30.887Z,29.42
2022-11-13T02:28:51.600Z,23.25
2022-11-13T02:35:22.353Z,29.77
2022-11-13T02:41:42.842Z,18.92
2022-11-13T02:48:03.511Z,19.30
2022-11-13T02:54:24.163Z,22.27
2022-11-13T03:00:44.738Z,21.15
2022-11-13T03:07:05.218Z,20.50
2022-11-13T03:13:27.629Z,21.70
2022-11-13T03:19:48.159Z,21.90
2022-11-13T03:26:14.044Z,23.48
2022-11-13T03:32:34.663Z,21.00
2022-11-13T03:38:55.346Z,20.23
2022-11-13T03:45:15.961Z,24.95
2022-11-13T03:51:36.572Z,24.00
2022-11-13T03:57:56.933Z,24.15
2022-11-13T04:04:17.438Z,21.80
2022-11-13T04:10:38.060Z,26.38
2022-11-13T04:16:58.475Z,22.80
2022-11-13T04:23:19.114Z,22.27
2022-11-13T04:29:39.659Z,20.85
2022-11-13T04:36:00.097Z,22.08
2022-11-13T04:42:39.178Z,26.50
2022-11-13T04:48:59.804Z,25.45
2022-11-13T04:55:20.525Z,28.05
2022-11-13T05:01:40.933Z,24.92
2022-11-13T05:08:01.354Z,23.98
2022-11-13T05:14:21.839Z,26.77
2022-11-13T05:20:42.503Z,66.07
2022-11-13T05:27:02.915Z,50.38
2022-11-13T05:33:23.432Z,32.72
2022-11-13T05:39:43.920Z,31.35
2022-11-13T05:46:06.929Z,36.47
2022-11-13T05:52:27.488Z,27.83
2022-11-13T05:58:49.236Z,28.73
2022-11-13T06:05:09.721Z,28.52
2022-11-13T06:11:31.087Z,27.48
2022-11-13T06:17:51.170Z,30.08
2022-11-13T06:24:13.093Z,31.02
2022-11-13T06:30:33.505Z,31.92
2022-11-13T06:36:57.104Z,29.55
2022-11-13T06:43:17.637Z,41.63
2022-11-13T06:49:38.210Z,34.60
2022-11-13T06:55:59.571Z,35.90
2022-11-13T07:02:19.750Z,30.38
2022-11-13T07:08:41.663Z,30.73
2022-11-13T07:15:02.124Z,29.27
2022-11-13T07:21:23.262Z,28.80
2022-11-13T07:27:46.640Z,39.30
2022-11-13T07:34:07.237Z,43.80
2022-11-13T07:40:27.991Z,51.75
2022-11-13T07:46:48.496Z,49.67
2022-11-13T07:53:10.308Z,43.95
2022-11-13T07:59:30.671Z,48.08
2022-11-13T08:05:51.326Z,37.20
2022-11-13T08:12:11.875Z,35.17
2022-11-13T08:18:32.974Z,29.50
2022-11-13T08:24:56.144Z,24.95
2022-11-13T08:31:17.147Z,24.23
2022-11-13T08:37:37.552Z,26.65
2022-11-13T08:43:58.111Z,28.20
2022-11-13T08:50:18.707Z,29.42
2022-11-13T08:56:39.027Z,29.02
2022-11-13T09:03:01.447Z,46.25
2022-11-13T09:09:23.389Z,37.75
2022-11-13T09:15:43.844Z,38.70
2022-11-13T09:22:04.694Z,47.95
2022-11-13T09:28:25.198Z,35.30
2022-11-13T09:34:45.576Z,35.45
2022-11-13T09:41:13.096Z,26.33
2022-11-13T09:47:53.399Z,28.50
2022-11-13T09:54:15.162Z,24.67
2022-11-13T10:00:36.541Z,24.02
2022-11-13T10:07:16.949Z,25.90
2022-11-13T10:13:48.585Z,19.85
2022-11-13T10:20:22.452Z,20.05
2022-11-13T10:26:42.844Z,20.20
2022-11-13T10:33:07.046Z,26.08
2022-11-13T10:39:27.780Z,17.67
2022-11-13T10:46:25.484Z,19.17
2022-11-13T10:52:48.866Z,19.17
2022-11-13T10:59:13.972Z,17.60
2022-11-13T11:05:34.735Z,15.32
2022-11-13T11:12:16.278Z,14.65
2022-11-13T11:18:45.712Z,14.40
2022-11-13T11:25:46.054Z,17.88
2022-11-13T11:32:19.140Z,16.00
2022-11-13T11:39:05.931Z,14.55
2022-11-13T11:45:32.909Z,12.77
2022-11-13T11:52:11.203Z,11.82
2022-11-13T11:59:04.137Z,13.55
2022-11-13T12:05:47.565Z,12.48
2022-11-13T12:12:30.768Z,12.43
2022-11-13T12:19:09.452Z,8.68
2022-11-13T12:25:55.543Z,7.60
2022-11-13T12:32:32.112Z,8.80
2022-11-13T12:39:29.309Z,6.40
2022-11-13T12:45:55.508Z,6.93
2022-11-13T12:52:15.960Z,5.68
2022-11-13T12:58:36.494Z,6.53
2022-11-13T13:05:19.681Z,6.30
2022-11-13T13:11:52.061Z,7.20
2022-11-13T13:18:18.709Z,7.97
2022-11-13T13:24:39.538Z,7.55
2022-11-13T13:31:03.617Z,7.25
2022-11-13T13:37:39.349Z,6.30
2022-11-13T13:44:09.971Z,6.03
2022-11-13T13:50:33.944Z,3.90
2022-11-13T13:56:57.156Z,3.58
2022-11-13T14:03:25.059Z,5.38
2022-11-13T14:09:45.375Z,4.20
2022-11-13T14:16:07.684Z,4.20
2022-11-13T14:22:28.290Z,6.05
2022-11-13T14:28:59.059Z,6.82
2022-11-13T14:35:22.777Z,7.15
2022-11-13T14:41:58.530Z,6.88
2022-11-13T14:48:23.470Z,9.50
2022-11-13T15:01:25.168Z,8.35
2022-11-13T15:07:46.217Z,9.13
2022-11-13T15:14:14.322Z,12.05
2022-11-13T15:20:34.793Z,13.27
2022-11-13T15:26:55.083Z,18.02
2022-11-13T15:33:16.568Z,18.10
2022-11-13T15:39:37.143Z,18.42
2022-11-13T15:45:57.626Z,20.40
2022-11-13T15:52:18.264Z,22.92
2022-11-13T15:58:41.288Z,24.65
2022-11-13T16:05:01.764Z,25.77
2022-11-13T16:11:22.248Z,25.05
2022-11-13T16:17:47.424Z,24.20
2022-11-13T16:24:10.984Z,28.20
2022-11-13T16:30:31.463Z,32.42
2022-11-13T16:36:52.004Z,28.02
2022-11-13T16:43:13.167Z,29.65
2022-11-13T16:49:33.727Z,31.25
2022-11-13T16:55:54.706Z,33.65
2022-11-13T17:02:18.096Z,37.55
2022-11-13T17:08:38.667Z,35.38
2022-11-13T17:14:59.019Z,39.90
2022-11-13T17:21:20.895Z,36.85
2022-11-13T17:27:41.407Z,37.33
2022-11-13T17:34:01.810Z,37.13
2022-11-13T17:40:22.341Z,35.70
2022-11-13T17:46:43.357Z,40.33
2022-11-13T17:53:04.037Z,37.50
2022-11-13T17:59:24.498Z,34.50
2022-11-13T18:05:45.008Z,33.30
2022-11-13T18:12:06.532Z,38.90
2022-11-13T18:18:26.951Z,47.85
2022-11-13T18:24:47.732Z,54.00
2022-11-13T18:31:10.851Z,57.72
2022-11-13T18:37:31.819Z,51.13
2022-11-13T18:43:53.334Z,59.85
2022-11-13T18:50:15.112Z,55.90
2022-11-13T18:56:36.027Z,50.25
2022-11-13T19:02:58.379Z,55.63
2022-11-13T19:09:19.244Z,54.55
2022-11-13T19:15:40.198Z,63.60
2022-11-13T19:22:04.319Z,53.53
2022-11-13T19:28:24.872Z,63.40
2022-11-13T19:34:46.748Z,59.47
2022-11-13T19:41:08.178Z,62.25
2022-11-13T19:47:28.316Z,62.92
2022-11-13T19:53:54.243Z,83.13
2022-11-13T20:00:15.004Z,58.60
2022-11-13T20:06:35.268Z,56.78
2022-11-13T20:12:55.811Z,60.80
2022-11-13T20:19:17.082Z,63.67
2022-11-13T20:25:37.707Z,122.47
2022-11-13T20:31:59.170Z,68.93
2022-11-13T20:38:19.422Z,67.93
2022-11-13T20:44:40.364Z,65.93
2022-11-13T20:51:28.170Z,64.60
2022-11-13T20:57:49.024Z,64.33
2022-11-13T21:04:09.397Z,69.25
2022-11-13T21:10:29.596Z,57.80
2022-11-13T21:16:50.211Z,73.03
2022-11-13T21:23:10.922Z,61.25
2022-11-13T21:29:31.392Z,59.17
2022-11-13T21:35:52.069Z,68.20
2022-11-13T21:42:12.402Z,71.63
2022-11-13T21:48:33.476Z,68.80
2022-11-13T21:54:53.987Z,77.47
2022-11-13T22:01:15.053Z,98.90
2022-11-13T22:07:35.600Z,104.25
2022-11-13T22:13:57.061Z,117.10
2022-11-13T22:20:17.608Z,113.82
2022-11-13T22:26:41.575Z,116.25
2022-11-13T22:33:04.526Z,111.63
2022-11-13T22:39:24.929Z,112.90
2022-11-13T22:45:45.960Z,113.25
2022-11-13T22:52:06.383Z,117.18
2022-11-13T22:58:28.057Z,105.80
2022-11-13T23:04:48.412Z,106.68
2022-11-13T23:11:14.886Z,107.13
2022-11-13T23:17:35.046Z,101.22
2022-11-13T23:23:56.430Z,109.88
2022-11-13T23:30:17.087Z,104.40
2022-11-13T23:36:37.681Z,102.78
2022-11-13T23:42:58.252Z,99.35
2022-11-13T23:49:18.634Z,109.40
2022-11-13T23:55:43.056Z,110.95
